createdAt,value
2022-10-06T00:05:00.012Z,15.75
2022-10-06T00:10:01.540Z,15.81
2022-10-06T00:15:03.089Z,15.87
2022-10-06T00:20:05.144Z,15.98
2022-10-06T00:25:07.942Z,16.05
2022-10-06T00:30:12.368Z,16.03
2022-10-06T00:35:13.945Z,16.18
2022-10-06T00:40:15.796Z,16.13
2022-10-06T00:45:19.027Z,16.11
2022-10-06T00:50:20.715Z,16.21
2022-10-06T00:55:22.501Z,16.27
2022-10-06T01:00:24.042Z,16.19
2022-10-06T01:05:34.627Z,16.19
2022-10-06T01:10:36.205Z,16.28
2022-10-06T01:15:41.554Z,16.19
2022-10-06T01:20:48.273Z,16.17
2022-10-06T01:25:50.266Z,16.16
2022-10-06T01:30:54.367Z,16.15
2022-10-06T01:35:58.339Z,16.12
2022-10-06T01:40:59.886Z,16.10
2022-10-06T01:46:01.524Z,16.03
2022-10-06T01:51:03.486Z,16.04
2022-10-06T01:56:05.326Z,16.00
2022-10-06T02:01:08.029Z,15.94
2022-10-06T02:06:10.895Z,15.83
2022-10-06T02:11:13.264Z,15.83
2022-10-06T02:16:18.941Z,15.85
2022-10-06T02:21:22.960Z,15.79
2022-10-06T02:26:24.613Z,15.76
2022-10-06T02:31:26.667Z,15.71
2022-10-06T02:36:28.516Z,15.65
2022-10-06T02:41:31.131Z,15.57
2022-10-06T02:46:32.884Z,15.65
2022-10-06T02:51:35.470Z,15.50
2022-10-06T02:56:37.960Z,15.65
2022-10-06T03:01:39.598Z,15.67
2022-10-06T03:06:46.137Z,15.56
2022-10-06T03:11:58.591Z,15.59
2022-10-06T03:17:09.944Z,15.52
2022-10-06T03:22:15.465Z,15.60
2022-10-06T03:27:23.790Z,15.66
2022-10-06T03:32:28.926Z,15.64
2022-10-06T03:37:30.632Z,15.70
2022-10-06T03:42:32.250Z,15.76
2022-10-06T03:47:33.827Z,15.79
2022-10-06T03:52:36.020Z,15.77
2022-10-06T03:57:37.655Z,15.77
2022-10-06T04:02:40.590Z,15.72
2022-10-06T04:07:42.201Z,15.72
2022-10-06T04:12:43.909Z,15.71
2022-10-06T04:17:45.579Z,15.67
2022-10-06T04:22:47.205Z,15.64
2022-10-06T04:27:48.855Z,15.65
2022-10-06T04:32:51.139Z,15.65
2022-10-06T04:37:52.921Z,15.69
2022-10-06T04:42:54.606Z,15.65
2022-10-06T04:47:56.305Z,15.44
2022-10-06T04:52:57.874Z,15.48
2022-10-06T04:57:59.600Z,15.48
2022-10-06T05:03:01.559Z,15.47
2022-10-06T05:08:03.536Z,15.60
2022-10-06T05:13:06.154Z,15.65
2022-10-06T05:18:08.155Z,15.67
2022-10-06T05:23:09.849Z,15.73
2022-10-06T05:28:11.590Z,15.86
2022-10-06T05:33:13.187Z,15.93
2022-10-06T05:38:15.154Z,16.07
2022-10-06T05:43:17.859Z,16.11
2022-10-06T05:48:20.168Z,16.19
2022-10-06T05:53:21.843Z,16.28
2022-10-06T05:58:23.655Z,16.37
2022-10-06T06:03:25.300Z,16.38
2022-10-06T06:08:27.495Z,16.54
2022-10-06T06:13:30.922Z,16.44
2022-10-06T06:18:40.324Z,16.50
2022-10-06T06:23:46.400Z,16.46
2022-10-06T06:28:53.731Z,16.38
2022-10-06T06:33:57.390Z,15.95
2022-10-06T06:39:04.251Z,15.96
2022-10-06T06:44:16.640Z,15.75
2022-10-06T06:49:25.572Z,15.63
2022-10-06T06:54:31.902Z,15.46
2022-10-06T06:59:38.976Z,15.23
2022-10-06T07:04:43.800Z,15.18
2022-10-06T07:09:48.186Z,15.26
2022-10-06T07:15:10.031Z,15.13
2022-10-06T07:20:33.876Z,14.93
2022-10-06T07:25:35.477Z,15.00
2022-10-06T07:30:41.708Z,15.12
2022-10-06T07:35:53.448Z,14.98
2022-10-06T07:41:17.896Z,14.91
2022-10-06T07:46:19.801Z,14.88
2022-10-06T07:51:34.274Z,14.95
2022-10-06T07:56:37.186Z,14.99
2022-10-06T08:01:39.420Z,14.97
2022-10-06T08:06:41.996Z,14.89
2022-10-06T08:11:45.029Z,14.95
2022-10-06T08:16:46.672Z,14.90
2022-10-06T08:21:48.186Z,15.02
2022-10-06T08:26:49.675Z,15.11
2022-10-06T08:31:51.285Z,14.97
2022-10-06T08:37:18.727Z,15.07
2022-10-06T08:42:21.523Z,15.26
2022-10-06T08:47:23.879Z,15.14
2022-10-06T08:52:46.836Z,15.39
2022-10-06T08:58:17.743Z,15.42
2022-10-06T09:03:24.081Z,15.55
2022-10-06T09:08:52.458Z,15.59
2022-10-06T09:13:59.769Z,15.62
2022-10-06T09:19:09.464Z,15.70
2022-10-06T09:24:14.748Z,15.82
2022-10-06T09:29:16.836Z,15.87
2022-10-06T09:34:39.414Z,16.02
2022-10-06T09:39:48.046Z,16.00
2022-10-06T09:45:01.668Z,16.14
2022-10-06T09:50:16.169Z,16.12
2022-10-06T09:55:19.164Z,16.07
2022-10-06T10:00:27.041Z,16.06
2022-10-06T10:05:39.955Z,16.14
2022-10-06T10:10:41.466Z,16.33
2022-10-06T10:15:53.567Z,16.40
2022-10-06T10:20:59.513Z,16.43
2022-10-06T10:26:10.371Z,16.40
2022-10-06T10:31:33.514Z,16.53
2022-10-06T10:36:39.484Z,16.56
2022-10-06T10:41:50.696Z,16.47
2022-10-06T10:46:55.120Z,16.41
2022-10-06T10:52:11.465Z,16.45
2022-10-06T10:57:16.465Z,16.57
2022-10-06T11:02:22.310Z,16.52
2022-10-06T11:07:50.053Z,16.58
2022-10-06T11:13:04.863Z,16.57
2022-10-06T11:18:44.106Z,16.46
2022-10-06T11:24:05.433Z,16.61
2022-10-06T11:29:30.238Z,16.70
2022-10-06T11:34:31.794Z,16.53
2022-10-06T11:39:48.210Z,16.62
2022-10-06T11:44:54.538Z,16.62
2022-10-06T11:49:56.194Z,16.65
2022-10-06T11:55:08.653Z,16.78
2022-10-06T12:00:16.127Z,16.83
2022-10-06T12:05:54.865Z,16.86
2022-10-06T12:10:50.117Z,16.90
2022-10-06T12:21:45.540Z,16.94
2022-10-06T12:26:51.884Z,16.87
2022-10-06T12:32:08.533Z,16.82
2022-10-06T12:37:21.947Z,16.80
2022-10-06T12:42:27.753Z,16.84
2022-10-06T12:47:34.437Z,16.91
2022-10-06T12:52:48.149Z,16.88
2022-10-06T12:57:54.178Z,16.90
2022-10-06T13:02:57.602Z,16.94
2022-10-06T13:08:07.585Z,16.89
2022-10-06T13:13:23.364Z,16.90
2022-10-06T13:18:25.167Z,16.88
2022-10-06T13:23:31.176Z,16.86
2022-10-06T13:28:35.631Z,16.88
2022-10-06T13:33:39.604Z,16.85
2022-10-06T13:38:42.222Z,16.88
2022-10-06T13:43:55.900Z,16.85
2022-10-06T13:49:00.838Z,16.84
2022-10-06T13:54:18.283Z,16.87
2022-10-06T13:59:39.857Z,16.85
2022-10-06T14:04:41.551Z,16.84
2022-10-06T14:09:43.291Z,16.80
2022-10-06T14:14:49.561Z,16.82
2022-10-06T14:19:51.397Z,16.79
2022-10-06T14:24:52.884Z,16.75
2022-10-06T14:29:56.221Z,16.77
2022-10-06T14:34:57.948Z,16.77
2022-10-06T14:39:59.700Z,16.73
2022-10-06T14:45:02.773Z,16.72
2022-10-06T14:50:05.493Z,16.70
2022-10-06T14:55:08.197Z,16.71
2022-10-06T15:00:10.411Z,16.68
2022-10-06T15:05:11.946Z,16.67
2022-10-06T15:10:13.449Z,16.69
2022-10-06T15:15:16.605Z,16.63
2022-10-06T15:20:18.155Z,16.60
2022-10-06T15:25:38.204Z,16.56
2022-10-06T15:30:41.002Z,16.48
2022-10-06T15:35:49.500Z,16.47
2022-10-06T15:41:02.180Z,16.40
2022-10-06T15:46:03.711Z,16.36
2022-10-06T15:51:05.308Z,16.35
2022-10-06T15:56:06.824Z,16.30
2022-10-06T16:01:11.549Z,16.19
2022-10-06T16:06:16.872Z,16.17
2022-10-06T16:11:18.353Z,16.09
2022-10-06T16:16:19.901Z,16.11
2022-10-06T16:21:21.524Z,16.07
2022-10-06T16:26:25.739Z,15.98
2022-10-06T16:31:27.705Z,15.88
2022-10-06T16:36:29.316Z,15.77
2022-10-06T16:41:30.887Z,15.70
2022-10-06T16:46:32.804Z,15.68
2022-10-06T16:51:39.066Z,15.61
2022-10-06T16:56:46.430Z,15.59
2022-10-06T17:01:49.238Z,15.59
2022-10-06T17:06:55.892Z,15.44
2022-10-06T17:11:59.235Z,15.44
2022-10-06T17:17:00.827Z,15.26
2022-10-06T17:22:02.472Z,15.08
2022-10-06T17:27:04.323Z,15.14
2022-10-06T17:32:05.969Z,14.97
2022-10-06T17:37:07.608Z,14.67
2022-10-06T17:42:13.666Z,14.81
2022-10-06T17:47:15.194Z,14.69
2022-10-06T17:52:20.667Z,14.59
2022-10-06T17:57:24.780Z,14.73
2022-10-06T18:02:26.668Z,14.55
2022-10-06T18:07:28.192Z,14.47
2022-10-06T18:12:36.076Z,14.24
2022-10-06T18:17:37.677Z,14.41
2022-10-06T18:22:39.527Z,14.40
2022-10-06T18:27:42.054Z,14.35
2022-10-06T18:38:05.394Z,14.06
2022-10-06T18:43:07.037Z,14.16
2022-10-06T18:48:27.878Z,13.90
2022-10-06T18:53:32.591Z,13.94
2022-10-06T18:58:41.021Z,13.86
2022-10-06T19:03:42.538Z,13.48
2022-10-06T19:08:44.265Z,13.67
2022-10-06T19:13:49.933Z,13.61
2022-10-06T19:18:51.575Z,13.29
2022-10-06T19:23:53.110Z,13.46
2022-10-06T19:28:54.682Z,13.66
2022-10-06T19:34:01.591Z,13.43
2022-10-06T19:39:05.334Z,13.54
2022-10-06T19:44:06.846Z,13.18
2022-10-06T19:49:10.452Z,13.09
2022-10-06T19:54:13.096Z,13.02
2022-10-06T19:59:20.499Z,13.23
2022-10-06T20:04:23.099Z,13.06
2022-10-06T20:09:24.901Z,13.18
2022-10-06T20:14:26.625Z,13.08
2022-10-06T20:19:28.218Z,13.13
2022-10-06T20:24:31.790Z,12.89
2022-10-06T20:29:34.625Z,12.67
2022-10-06T20:34:36.146Z,12.51
2022-10-06T20:39:56.347Z,12.53
2022-10-06T20:44:57.851Z,12.40
2022-10-06T20:49:59.331Z,12.30
2022-10-06T20:55:00.814Z,12.35
2022-10-06T21:00:02.420Z,11.97
2022-10-06T21:05:04.946Z,12.56
2022-10-06T21:10:07.622Z,12.44
2022-10-06T21:15:09.888Z,12.29
2022-10-06T21:20:11.423Z,12.40
2022-10-06T21:25:13.252Z,12.31
2022-10-06T21:30:14.918Z,12.37
2022-10-06T21:35:16.444Z,12.46
2022-10-06T21:40:17.992Z,12.19
2022-10-06T21:45:24.252Z,11.91
2022-10-06T21:50:26.366Z,11.89
2022-10-06T21:55:28.197Z,11.95
2022-10-06T22:00:29.746Z,12.16
2022-10-06T22:05:33.327Z,11.59
2022-10-06T22:10:34.989Z,11.56
2022-10-06T22:15:36.694Z,12.08
2022-10-06T22:20:38.241Z,11.83
2022-10-06T22:25:39.819Z,11.56
2022-10-06T22:30:41.355Z,11.67
2022-10-06T22:35:50.923Z,11.83
2022-10-06T22:40:52.680Z,11.38
2022-10-06T22:45:54.209Z,11.48
2022-10-06T22:50:55.910Z,11.63
2022-10-06T22:56:01.682Z,11.41
2022-10-06T23:01:11.291Z,11.50
2022-10-06T23:06:14.988Z,11.54
2022-10-06T23:11:18.638Z,11.09
2022-10-06T23:16:20.886Z,11.15
2022-10-06T23:21:24.300Z,11.31
2022-10-06T23:26:26.326Z,11.14
2022-10-06T23:31:28.670Z,11.28
2022-10-06T23:36:30.236Z,11.26
2022-10-06T23:41:31.971Z,11.46
2022-10-06T23:46:33.503Z,10.85
2022-10-06T23:51:35.050Z,11.29
2022-10-06T23:56:36.561Z,11.04
